Nordic Philip — 5BZH2 — position and weather

sailwx.info

Track history (hours):
 
Tides and Currents Weather Stations Pressure Air Temp Water Temp Dewpoint Dewpoint Depression Visibility Wind Speed Wind Dir Waves Ship Positions

Nordic Philip

Last reported at 2018-Feb-19 05:30 UTC. Time now 2018-Feb-19 05:39 UTC.
Position N 56°15' E 016°47'.

Length 151 m; draft 8.2 m.

Type: Ship (hazmat cat A). MMSI: 212018000.

Date/timePositionNaut miles runAvg speedWind from/ knotsBaromVisibWave heightAir tempDewpointWater temp
2018-Feb-19 05:30N 56°15' E 016°47'917.4
2018-Feb-19 05:00N 56°23' E 016°53'20217.2
2018-Feb-18 17:16N 59°22' E 019°48'415.6
2018-Feb-18 16:59N 59°26' E 019°52'816.7
2018-Feb-18 16:29N 59°33' E 019°57'817.1
2018-Feb-18 16:00N 59°41' E 019°50'918.0
2018-Feb-18 15:30N 59°48' E 019°39'917.9
2018-Feb-18 15:00N 59°55' E 019°28'918.0
2018-Feb-18 14:30N 60°01' E 019°16'918.2
2018-Feb-18 14:00N 60°08' E 019°04'917.1
2018-Feb-18 13:30N 60°17' E 018°60'917.9
2018-Feb-18 13:00N 60°26' E 018°59'1017.8
2018-Feb-18 12:27N 60°35' E 019°01'  
2018-Feb-11 08:17N 60°29' E 019°03'310.4
2018-Feb-11 08:00N 60°26' E 019°02'510.5
2018-Feb-11 07:30N 60°21' E 019°01'510.4
2018-Feb-11 07:00N 60°16' E 019°02'510.6
2018-Feb-11 06:30N 60°11' E 019°07'510.3
2018-Feb-11 06:00N 60°07' E 019°13'510.3
2018-Feb-11 05:30N 60°03' E 019°20'510.1
2018-Feb-11 05:00N 59°59' E 019°26'5 9.8
2018-Feb-11 04:30N 59°55' E 019°32'610.6
2018-Feb-11 03:54N 59°50' E 019°40'239 6.5
2018-Feb-09 15:00N 56°07' E 016°56'611.3
2018-Feb-09 14:30N 56°04' E 016°48'1711.3
2018-Feb-09 13:00N 55°55' E 016°22'611.1
2018-Feb-09 12:30N 55°52' E 016°13'1111.1
2018-Feb-09 11:30N 55°47' E 015°56'611.2
2018-Feb-09 11:00N 55°44' E 015°47'611.2
2018-Feb-09 10:30N 55°42' E 015°38'611.2
2018-Feb-09 10:00N 55°39' E 015°30'611.3
2018-Feb-09 09:30N 55°37' E 015°21'611.4
2018-Feb-09 09:00N 55°34' E 015°12'611.4
2018-Feb-09 08:30N 55°31' E 015°03'  
Track history (hours):
 
Tides and Currents Weather Stations Pressure Air Temp Water Temp Dewpoint Dewpoint Depression Visibility Wind Speed Wind Dir Waves Ship Positions

Nordic Philip

Last reported at 2018-Feb-19 05:30 UTC. Time now 2018-Feb-19 05:39 UTC.
Position N 56°15' E 016°47'.

Length 151 m; draft 8.2 m.

Type: Ship (hazmat cat A). MMSI: 212018000.

Date/timePositionNaut miles runAvg speedWind from/ knotsBaromVisibWave heightAir tempDewpointWater temp
2018-Feb-19 05:30N 56°15' E 016°47'917.4
2018-Feb-19 05:00N 56°23' E 016°53'20217.2
2018-Feb-18 17:16N 59°22' E 019°48'415.6
2018-Feb-18 16:59N 59°26' E 019°52'816.7
2018-Feb-18 16:29N 59°33' E 019°57'817.1
2018-Feb-18 16:00N 59°41' E 019°50'918.0
2018-Feb-18 15:30N 59°48' E 019°39'917.9
2018-Feb-18 15:00N 59°55' E 019°28'918.0
2018-Feb-18 14:30N 60°01' E 019°16'918.2
2018-Feb-18 14:00N 60°08' E 019°04'917.1
2018-Feb-18 13:30N 60°17' E 018°60'917.9
2018-Feb-18 13:00N 60°26' E 018°59'1017.8
2018-Feb-18 12:27N 60°35' E 019°01'  
2018-Feb-11 08:17N 60°29' E 019°03'310.4
2018-Feb-11 08:00N 60°26' E 019°02'510.5
2018-Feb-11 07:30N 60°21' E 019°01'510.4
2018-Feb-11 07:00N 60°16' E 019°02'510.6
2018-Feb-11 06:30N 60°11' E 019°07'510.3
2018-Feb-11 06:00N 60°07' E 019°13'510.3
2018-Feb-11 05:30N 60°03' E 019°20'510.1
2018-Feb-11 05:00N 59°59' E 019°26'5 9.8
2018-Feb-11 04:30N 59°55' E 019°32'610.6
2018-Feb-11 03:54N 59°50' E 019°40'239 6.5
2018-Feb-09 15:00N 56°07' E 016°56'611.3
2018-Feb-09 14:30N 56°04' E 016°48'1711.3
2018-Feb-09 13:00N 55°55' E 016°22'611.1
2018-Feb-09 12:30N 55°52' E 016°13'1111.1
2018-Feb-09 11:30N 55°47' E 015°56'611.2
2018-Feb-09 11:00N 55°44' E 015°47'611.2
2018-Feb-09 10:30N 55°42' E 015°38'611.2
2018-Feb-09 10:00N 55°39' E 015°30'611.3
2018-Feb-09 09:30N 55°37' E 015°21'611.4
2018-Feb-09 09:00N 55°34' E 015°12'611.4
2018-Feb-09 08:30N 55°31' E 015°03'  

Dump ship's entire track history